createdAt,value
2019-04-05T00:01:50.716Z,24.20
2019-04-05T00:04:19.573Z,24.87
2019-04-05T00:06:48.551Z,24.18
2019-04-05T00:09:17.854Z,23.35
2019-04-05T00:11:46.888Z,24.03
2019-04-05T00:14:15.997Z,25.53
2019-04-05T00:16:45.192Z,24.35
2019-04-05T00:19:14.611Z,25.00
2019-04-05T00:21:43.880Z,24.65
2019-04-05T00:24:13.295Z,25.40
2019-04-05T00:26:42.123Z,25.17
2019-04-05T00:29:10.976Z,25.50
2019-04-05T00:31:39.776Z,24.57
2019-04-05T00:34:08.815Z,23.55
2019-04-05T00:36:37.840Z,24.12
2019-04-05T00:39:08.720Z,24.95
2019-04-05T00:41:38.287Z,24.30
2019-04-05T00:44:07.181Z,24.80
2019-04-05T00:46:36.245Z,24.02
2019-04-05T00:49:05.495Z,25.08
2019-04-05T00:51:34.419Z,26.02
2019-04-05T00:54:03.434Z,25.17
2019-04-05T00:56:32.871Z,26.35
2019-04-05T00:59:01.804Z,26.97
2019-04-05T01:01:30.810Z,25.85
2019-04-05T01:03:59.728Z,25.00
2019-04-05T01:06:29.448Z,26.33
2019-04-05T01:08:58.341Z,26.60
2019-04-05T01:11:27.470Z,26.60
2019-04-05T01:13:56.778Z,25.72
2019-04-05T01:16:25.754Z,25.68
2019-04-05T01:18:55.006Z,25.40
2019-04-05T01:21:27.173Z,27.03
2019-04-05T01:23:58.540Z,28.00
2019-04-05T01:26:27.401Z,28.15
2019-04-05T01:28:56.561Z,26.87
2019-04-05T01:31:25.802Z,28.00
2019-04-05T01:33:54.620Z,26.80
2019-04-05T01:36:23.476Z,27.35
2019-04-05T01:38:52.201Z,27.95
2019-04-05T01:41:21.109Z,27.05
2019-04-05T01:43:50.696Z,27.02
2019-04-05T01:46:19.581Z,27.15
2019-04-05T01:48:48.520Z,27.10
2019-04-05T01:51:17.484Z,26.85
2019-04-05T01:53:46.369Z,26.87
2019-04-05T01:56:15.108Z,26.90
2019-04-05T01:58:43.840Z,27.10
2019-04-05T02:01:13.006Z,26.05
2019-04-05T02:03:42.041Z,26.35
2019-04-05T02:06:10.809Z,25.48
2019-04-05T02:08:41.153Z,26.90
2019-04-05T02:11:09.941Z,25.83
2019-04-05T02:13:39.202Z,26.77
2019-04-05T02:16:08.194Z,26.17
2019-04-05T02:18:37.290Z,26.62
2019-04-05T02:21:06.150Z,25.68
2019-04-05T02:23:34.969Z,27.25
2019-04-05T02:26:03.845Z,25.80
2019-04-05T02:28:32.582Z,25.33
2019-04-05T02:31:01.513Z,25.27
2019-04-05T02:33:30.368Z,25.30
2019-04-05T02:35:59.526Z,25.45
2019-04-05T02:38:28.350Z,26.00
2019-04-05T02:40:59.103Z,25.75
2019-04-05T02:43:30.995Z,26.10
2019-04-05T02:46:00.984Z,25.57
2019-04-05T02:48:32.799Z,25.92
2019-04-05T02:51:04.001Z,25.17
2019-04-05T02:53:35.091Z,25.57
2019-04-05T02:56:05.179Z,25.52
2019-04-05T02:58:34.574Z,24.40
2019-04-05T03:01:03.684Z,25.37
2019-04-05T03:03:33.534Z,25.95
2019-04-05T03:06:02.922Z,26.13
2019-04-05T03:08:32.181Z,26.07
2019-04-05T03:11:08.405Z,27.00
2019-04-05T03:13:50.669Z,25.20
2019-04-05T03:16:39.241Z,25.75
2019-04-05T03:18:59.054Z,27.50
2019-04-05T03:21:29.607Z,26.68
2019-04-05T03:24:01.370Z,26.45
2019-04-05T03:26:33.788Z,25.47
2019-04-05T03:29:05.816Z,26.07
2019-04-05T03:31:35.309Z,27.15
2019-04-05T03:34:05.016Z,25.60
2019-04-05T03:36:34.154Z,26.27
2019-04-05T03:39:03.962Z,27.87
2019-04-05T03:41:32.937Z,28.25
2019-04-05T03:44:02.033Z,27.82
2019-04-05T03:46:31.934Z,26.70
2019-04-05T03:49:01.249Z,27.37
2019-04-05T03:51:30.330Z,27.85
2019-04-05T03:53:59.497Z,27.80
2019-04-05T03:56:28.464Z,28.40
2019-04-05T03:58:57.432Z,28.65
2019-04-05T04:01:26.609Z,28.38
2019-04-05T04:03:55.880Z,29.37
2019-04-05T04:06:26.099Z,29.05
2019-04-05T04:08:55.017Z,29.90
2019-04-05T04:11:24.409Z,29.37
2019-04-05T04:13:53.711Z,29.05
2019-04-05T04:16:23.537Z,28.77
2019-04-05T04:18:52.521Z,29.17
2019-04-05T04:21:31.679Z,28.40
2019-04-05T04:24:00.900Z,27.65
2019-04-05T04:26:31.258Z,27.22
2019-04-05T04:29:00.797Z,27.00
2019-04-05T04:31:31.310Z,26.57
2019-04-05T04:34:00.474Z,26.60
2019-04-05T04:36:29.708Z,27.85
2019-04-05T04:38:58.829Z,28.67
2019-04-05T04:41:31.646Z,28.38
2019-04-05T04:43:59.005Z,29.07
2019-04-05T04:46:28.841Z,28.50
2019-04-05T04:48:58.274Z,29.20
2019-04-05T04:51:27.558Z,28.38
2019-04-05T04:53:56.541Z,29.12
2019-04-05T04:56:25.934Z,29.87
2019-04-05T04:58:55.081Z,32.07
2019-04-05T05:01:24.277Z,31.77
2019-04-05T05:03:53.121Z,32.83
2019-04-05T05:06:22.058Z,32.10
2019-04-05T05:08:51.024Z,31.05
2019-04-05T05:11:19.910Z,32.83
2019-04-05T05:13:48.886Z,32.75
2019-04-05T05:16:18.084Z,31.33
2019-04-05T05:18:46.972Z,32.25
2019-04-05T05:21:15.796Z,32.20
2019-04-05T05:23:45.073Z,31.35
2019-04-05T05:26:14.356Z,32.13
2019-04-05T05:28:43.232Z,32.47
2019-04-05T05:31:12.752Z,31.95
2019-04-05T05:33:41.885Z,32.20
2019-04-05T05:36:10.838Z,33.10
2019-04-05T05:38:39.699Z,31.23
2019-04-05T05:41:08.894Z,32.15
2019-04-05T05:43:37.868Z,31.02
2019-04-05T05:46:06.750Z,32.78
2019-04-05T05:48:36.117Z,32.45
2019-04-05T05:51:04.967Z,31.27
2019-04-05T05:53:34.196Z,32.27
2019-04-05T05:56:02.916Z,31.57
2019-04-05T05:58:31.660Z,32.23
2019-04-05T06:01:00.461Z,32.08
2019-04-05T06:03:29.834Z,31.57
2019-04-05T06:06:04.432Z,30.57
2019-04-05T06:08:29.885Z,32.23
2019-04-05T06:10:58.782Z,30.95
2019-04-05T06:13:28.277Z,31.00
2019-04-05T06:15:57.376Z,31.27
2019-04-05T06:18:26.109Z,30.88
2019-04-05T06:20:54.861Z,31.27
2019-04-05T06:25:54.368Z,31.10
2019-04-05T06:28:23.160Z,31.95
2019-04-05T06:30:51.884Z,29.15
2019-04-05T06:33:30.881Z,28.62
2019-04-05T06:35:39.483Z,31.10
2019-04-05T06:35:51.410Z,27.98
2019-04-05T06:38:20.156Z,28.73
2019-04-05T06:40:48.953Z,27.98
2019-04-05T06:43:17.748Z,28.02
2019-04-05T06:45:46.630Z,28.42
2019-04-05T06:48:19.503Z,29.50
2019-04-05T06:50:47.497Z,27.90
2019-04-05T06:53:16.540Z,28.32
2019-04-05T06:55:45.385Z,28.57
2019-04-05T06:58:19.625Z,27.65
2019-04-05T07:00:56.378Z,27.77
2019-04-05T07:03:15.682Z,29.18
2019-04-05T07:05:44.854Z,28.40
2019-04-05T07:08:13.797Z,28.83
2019-04-05T07:10:45.050Z,29.10
2019-04-05T07:15:47.896Z,26.02
2019-04-05T07:18:16.640Z,26.00
2019-04-05T07:20:45.413Z,26.75
2019-04-05T07:23:14.221Z,27.50
2019-04-05T07:25:43.097Z,28.40
2019-04-05T07:28:11.929Z,28.17
2019-04-05T07:30:40.745Z,28.30
2019-04-05T07:33:09.512Z,28.67
2019-04-05T07:35:38.271Z,26.45
2019-04-05T07:38:09.620Z,23.62
2019-04-05T07:40:37.473Z,25.35
2019-04-05T07:43:06.289Z,25.12
2019-04-05T07:45:41.266Z,24.40
2019-04-05T07:48:10.779Z,24.20
2019-04-05T07:50:39.521Z,23.30
2019-04-05T07:53:08.248Z,22.40
2019-04-05T07:55:37.104Z,19.48
2019-04-05T07:58:05.916Z,19.37
2019-04-05T08:00:51.320Z,19.62
2019-04-05T08:03:20.809Z,19.52
2019-04-05T08:05:50.454Z,19.23
2019-04-05T08:08:46.073Z,19.23
2019-04-05T08:11:15.789Z,19.90
2019-04-05T08:13:46.771Z,19.77
2019-04-05T08:16:15.617Z,20.15
2019-04-05T08:18:56.665Z,22.35
2019-04-05T08:21:15.185Z,21.85
2019-04-05T08:23:44.194Z,21.68
2019-04-05T08:26:13.303Z,21.40
2019-04-05T08:28:42.168Z,22.40
2019-04-05T08:31:13.164Z,22.45
2019-04-05T08:33:41.850Z,20.65
2019-04-05T08:36:10.903Z,20.32
2019-04-05T08:38:40.104Z,20.85
2019-04-05T08:41:09.519Z,20.12
2019-04-05T08:43:39.348Z,19.90
2019-04-05T08:46:08.288Z,20.63
2019-04-05T08:48:37.508Z,21.00
2019-04-05T08:51:06.944Z,21.10
2019-04-05T08:53:36.960Z,20.37
2019-04-05T08:56:08.245Z,20.50
2019-04-05T08:58:37.258Z,18.47
2019-04-05T09:01:07.313Z,18.60
2019-04-05T09:03:36.150Z,17.50
2019-04-05T09:06:05.153Z,17.73
2019-04-05T09:08:34.049Z,17.83
2019-04-05T09:11:02.837Z,17.30
2019-04-05T09:13:31.899Z,17.10
2019-04-05T09:16:01.125Z,16.97
2019-04-05T09:18:29.986Z,16.70
2019-04-05T09:20:59.108Z,16.87
2019-04-05T09:23:28.068Z,16.53
2019-04-05T09:26:16.103Z,17.40
2019-04-05T09:28:45.146Z,17.10
2019-04-05T09:31:14.038Z,15.60
2019-04-05T09:33:43.128Z,16.20
2019-04-05T09:36:11.854Z,15.47
2019-04-05T09:38:40.769Z,14.85
2019-04-05T09:41:09.626Z,14.18
2019-04-05T09:43:38.369Z,14.18
2019-04-05T09:46:07.277Z,14.53
2019-04-05T09:48:36.034Z,14.40
2019-04-05T09:51:07.095Z,14.40
2019-04-05T09:53:35.994Z,14.18
2019-04-05T09:56:05.033Z,14.13
2019-04-05T09:58:33.779Z,14.77
2019-04-05T10:01:03.216Z,14.63
2019-04-05T10:03:32.128Z,15.30
2019-04-05T10:06:01.288Z,14.80
2019-04-05T10:08:30.581Z,15.13
2019-04-05T10:10:59.769Z,14.53
2019-04-05T10:13:28.520Z,14.73
2019-04-05T10:15:57.660Z,14.78
2019-04-05T10:18:26.415Z,14.85
2019-04-05T10:20:55.720Z,14.85
2019-04-05T10:23:24.706Z,14.68
2019-04-05T10:25:53.520Z,14.30
2019-04-05T10:28:22.244Z,14.60
2019-04-05T10:30:52.119Z,14.30
2019-04-05T10:33:21.057Z,14.35
2019-04-05T10:35:50.257Z,14.20
2019-04-05T10:38:19.075Z,14.80
2019-04-05T10:40:47.892Z,13.75
2019-04-05T10:43:17.524Z,14.53
2019-04-05T10:45:47.169Z,14.53
2019-04-05T10:48:16.366Z,15.00
2019-04-05T10:50:45.122Z,14.68
2019-04-05T10:53:15.588Z,15.35
2019-04-05T10:55:45.372Z,14.90
2019-04-05T10:58:14.317Z,15.05
2019-04-05T11:00:43.284Z,15.05
2019-04-05T11:03:12.018Z,15.32
2019-04-05T11:05:41.127Z,16.02
2019-04-05T11:08:10.094Z,16.00
2019-04-05T11:10:38.845Z,15.65
2019-04-05T11:13:07.674Z,16.50
2019-04-05T11:15:36.469Z,16.37
2019-04-05T11:18:05.313Z,16.42
2019-04-05T11:20:34.146Z,17.00
2019-04-05T11:23:02.896Z,18.00
2019-04-05T11:25:31.641Z,18.00
2019-04-05T11:28:00.749Z,18.42
2019-04-05T11:30:42.239Z,17.35
2019-04-05T11:33:11.281Z,17.10
2019-04-05T11:35:40.208Z,16.80
2019-04-05T11:38:09.101Z,16.67
2019-04-05T11:40:38.603Z,16.40
2019-04-05T11:43:07.914Z,17.05
2019-04-05T11:45:37.599Z,16.17
2019-04-05T11:48:06.909Z,16.40
2019-04-05T11:50:35.832Z,16.82
2019-04-05T11:53:04.658Z,16.67
2019-04-05T11:55:33.606Z,15.70
2019-04-05T11:58:02.790Z,15.83
2019-04-05T12:00:50.745Z,14.58
2019-04-05T12:03:19.718Z,15.68
2019-04-05T12:05:49.097Z,15.70
2019-04-05T12:08:17.926Z,16.23
2019-04-05T12:10:46.663Z,15.23
2019-04-05T12:13:15.774Z,15.72
2019-04-05T12:15:44.542Z,15.65
2019-04-05T12:18:16.724Z,15.80
2019-04-05T12:20:52.050Z,15.83
2019-04-05T12:23:14.737Z,16.65
2019-04-05T12:25:43.492Z,18.67
2019-04-05T12:28:12.296Z,19.02
2019-04-05T12:30:42.453Z,19.60
2019-04-05T12:33:14.216Z,17.80
2019-04-05T12:35:42.321Z,17.30
2019-04-05T12:38:12.997Z,18.73
2019-04-05T12:40:41.813Z,19.30
2019-04-05T12:43:13.284Z,19.30
2019-04-05T12:45:44.363Z,18.42
2019-04-05T12:48:13.701Z,18.98
2019-04-05T12:50:44.852Z,18.77
2019-04-05T12:53:13.290Z,20.62
2019-04-05T12:55:42.050Z,20.30
2019-04-05T12:58:11.074Z,21.12
2019-04-05T13:00:39.914Z,20.00
2019-04-05T13:03:08.978Z,19.87
2019-04-05T13:05:37.896Z,19.23
2019-04-05T13:08:06.753Z,19.67
2019-04-05T13:10:35.484Z,20.15
2019-04-05T13:13:04.308Z,19.90
2019-04-05T13:15:33.118Z,20.95
2019-04-05T13:18:02.316Z,20.35
2019-04-05T13:20:31.137Z,20.57
2019-04-05T13:23:02.173Z,21.07
2019-04-05T13:25:30.606Z,22.07
2019-04-05T13:28:12.534Z,22.37
2019-04-05T13:30:30.374Z,21.52
2019-04-05T13:32:59.361Z,23.83
2019-04-05T13:35:28.473Z,22.35
2019-04-05T13:38:00.361Z,22.17
2019-04-05T13:40:29.615Z,22.50
2019-04-05T13:43:01.645Z,22.25
2019-04-05T13:45:29.277Z,20.68
2019-04-05T13:47:58.036Z,22.50
2019-04-05T13:50:26.813Z,22.52
2019-04-05T13:52:55.596Z,22.65
2019-04-05T13:55:24.399Z,24.07
2019-04-05T13:57:53.238Z,22.25
2019-04-05T14:00:22.405Z,22.32
2019-04-05T14:02:51.482Z,19.73
2019-04-05T14:05:22.293Z,20.87
2019-04-05T14:07:54.683Z,20.17
2019-04-05T14:10:21.490Z,19.55
2019-04-05T14:12:50.239Z,20.30
2019-04-05T14:15:41.967Z,20.05
2019-04-05T14:18:08.657Z,20.20
2019-04-05T14:20:37.474Z,21.10
2019-04-05T14:23:06.331Z,20.57
2019-04-05T14:25:35.076Z,20.72
2019-04-05T14:28:05.271Z,21.05
2019-04-05T14:30:34.413Z,21.30
2019-04-05T14:33:03.526Z,20.37
2019-04-05T14:35:32.617Z,20.50
2019-04-05T14:38:01.673Z,21.03
2019-04-05T14:40:33.033Z,20.27
2019-04-05T14:43:01.346Z,20.15
2019-04-05T14:45:30.164Z,20.17
2019-04-05T14:47:58.913Z,20.45
2019-04-05T14:50:28.811Z,21.33
2019-04-05T14:53:00.943Z,21.68
2019-04-05T14:55:29.767Z,20.85
2019-04-05T14:57:59.909Z,20.27
2019-04-05T15:00:28.838Z,20.10
2019-04-05T15:02:57.761Z,20.57
2019-04-05T15:05:27.103Z,20.23
2019-04-05T15:07:56.402Z,20.27
2019-04-05T15:10:26.187Z,19.48
2019-04-05T15:12:55.143Z,20.85
2019-04-05T15:15:23.936Z,21.80
2019-04-05T15:17:53.255Z,21.68
2019-04-05T15:20:22.344Z,21.73
2019-04-05T15:22:51.213Z,21.65
2019-04-05T15:25:21.823Z,22.03
2019-04-05T15:27:53.829Z,21.97
2019-04-05T15:30:21.309Z,21.95
2019-04-05T15:32:51.446Z,21.80
2019-04-05T15:35:21.029Z,21.85
2019-04-05T15:37:49.865Z,21.80
2019-04-05T15:40:19.751Z,21.95
2019-04-05T15:42:48.753Z,22.15
2019-04-05T15:45:18.169Z,21.48
2019-04-05T15:47:46.900Z,22.93
2019-04-05T15:50:15.881Z,23.07
2019-04-05T15:52:44.920Z,22.40
2019-04-05T15:55:13.809Z,22.80
2019-04-05T15:57:42.625Z,23.30
2019-04-05T16:00:14.398Z,23.57
2019-04-05T16:02:43.363Z,25.55
2019-04-05T16:05:13.306Z,25.15
2019-04-05T16:07:42.495Z,24.87
2019-04-05T16:10:11.657Z,24.87
2019-04-05T16:12:40.559Z,23.90
2019-04-05T16:15:11.332Z,24.00
2019-04-05T16:17:40.345Z,25.10
2019-04-05T16:20:10.049Z,23.95
2019-04-05T16:22:39.115Z,25.30
2019-04-05T16:25:08.745Z,24.90
2019-04-05T16:27:37.492Z,24.37
2019-04-05T16:30:07.966Z,22.98
2019-04-05T16:32:36.820Z,23.85
2019-04-05T16:35:05.978Z,23.62
2019-04-05T16:37:35.046Z,23.92
2019-04-05T16:40:04.032Z,24.25
2019-04-05T16:42:32.890Z,25.60
2019-04-05T16:45:01.810Z,25.55
2019-04-05T16:47:31.012Z,25.92
2019-04-05T16:49:59.916Z,25.25
2019-04-05T16:52:28.754Z,25.88
2019-04-05T16:54:57.687Z,25.77
2019-04-05T16:57:27.469Z,25.75
2019-04-05T16:59:56.801Z,26.10
2019-04-05T17:02:25.901Z,26.25
2019-04-05T17:04:54.935Z,28.25
2019-04-05T17:07:24.481Z,31.75
2019-04-05T17:09:54.633Z,26.97
2019-04-05T17:12:23.849Z,27.90
2019-04-05T17:15:12.174Z,29.27
2019-04-05T17:17:41.251Z,28.47
2019-04-05T17:20:10.134Z,27.77
2019-04-05T17:22:39.001Z,28.25
2019-04-05T17:25:08.507Z,27.85
2019-04-05T17:27:37.241Z,28.30
2019-04-05T17:30:07.102Z,28.62
2019-04-05T17:32:35.911Z,28.85
2019-04-05T17:35:05.508Z,28.02
2019-04-05T17:37:34.456Z,29.90
2019-04-05T17:40:04.056Z,29.30
2019-04-05T17:42:34.776Z,27.37
2019-04-05T17:45:04.454Z,27.87
2019-04-05T17:47:33.380Z,28.77
2019-04-05T17:50:02.114Z,29.57
2019-04-05T17:52:31.316Z,30.82
2019-04-05T17:55:00.356Z,29.67
2019-04-05T17:57:29.510Z,30.10
2019-04-05T17:59:59.264Z,30.37
2019-04-05T18:02:28.788Z,29.75
2019-04-05T18:04:57.544Z,29.82
2019-04-05T18:07:26.616Z,30.60
2019-04-05T18:09:55.394Z,30.45
2019-04-05T18:12:24.536Z,37.98
2019-04-05T18:14:53.340Z,34.25
2019-04-05T18:17:22.544Z,30.10
2019-04-05T18:19:51.366Z,30.90
2019-04-05T18:22:20.878Z,31.50
2019-04-05T18:24:49.738Z,32.20
2019-04-05T18:27:18.726Z,32.05
2019-04-05T18:29:47.800Z,31.87
2019-04-05T18:32:17.049Z,31.42
2019-04-05T18:34:45.897Z,31.62
2019-04-05T18:37:14.684Z,31.02
2019-04-05T18:39:43.475Z,31.55
2019-04-05T18:42:12.379Z,31.93
2019-04-05T18:44:41.302Z,31.90
2019-04-05T18:47:10.401Z,32.00
2019-04-05T18:49:39.677Z,31.75
2019-04-05T18:52:08.834Z,32.00
2019-04-05T18:54:37.570Z,32.90
2019-04-05T18:57:06.328Z,32.83
2019-04-05T18:59:35.587Z,32.20
2019-04-05T19:02:05.332Z,33.40
2019-04-05T19:04:34.394Z,34.83
2019-04-05T19:07:03.546Z,34.70
2019-04-05T19:09:32.451Z,34.43
2019-04-05T19:12:01.202Z,33.23
2019-04-05T19:14:30.166Z,32.67
2019-04-05T19:16:59.662Z,32.17
2019-04-05T19:19:29.049Z,33.43
2019-04-05T19:21:58.622Z,34.92
2019-04-05T19:24:27.813Z,33.58
2019-04-05T19:26:56.830Z,33.02
2019-04-05T19:29:25.678Z,34.40
2019-04-05T19:49:30.244Z,33.33
2019-04-05T19:52:18.212Z,33.15
2019-04-05T19:54:47.149Z,31.35
2019-04-05T19:57:16.794Z,32.93
2019-04-05T19:59:45.580Z,33.40
2019-04-05T20:02:14.577Z,33.65
2019-04-05T20:04:43.616Z,32.67
2019-04-05T20:07:12.961Z,32.80
2019-04-05T20:09:42.046Z,33.08
2019-04-05T20:12:10.922Z,34.43
2019-04-05T20:14:40.003Z,34.35
2019-04-05T20:17:09.139Z,36.40
2019-04-05T20:19:37.882Z,36.07
2019-04-05T20:22:07.149Z,33.95
2019-04-05T20:24:35.967Z,35.40
2019-04-05T20:27:04.906Z,33.90
2019-04-05T20:29:33.646Z,34.70
2019-04-05T20:32:02.500Z,34.50
2019-04-05T20:34:31.825Z,34.05
2019-04-05T20:37:01.047Z,35.38
2019-04-05T20:39:30.218Z,35.92
2019-04-05T20:41:59.099Z,37.17
2019-04-05T20:44:28.253Z,35.20
2019-04-05T20:46:57.074Z,35.73
2019-04-05T20:49:25.828Z,36.00
2019-04-05T20:51:55.169Z,34.67
2019-04-05T20:54:24.985Z,36.95
2019-04-05T20:56:54.308Z,35.28
2019-04-05T20:59:23.089Z,36.13
2019-04-05T21:01:51.929Z,36.75
2019-04-05T21:04:20.741Z,35.30
2019-04-05T21:06:49.473Z,35.63
2019-04-05T21:09:18.341Z,35.10
2019-04-05T21:11:47.503Z,33.90
2019-04-05T21:14:16.572Z,33.08
2019-04-05T21:16:45.398Z,33.90
2019-04-05T21:19:14.434Z,34.18
2019-04-05T21:21:43.692Z,34.35
2019-04-05T21:24:12.756Z,36.00
2019-04-05T21:26:41.570Z,38.17
2019-04-05T21:29:10.678Z,37.30
2019-04-05T21:31:39.490Z,37.08
2019-04-05T21:34:08.481Z,34.90
2019-04-05T21:36:37.508Z,35.45
2019-04-05T21:39:07.849Z,35.40
2019-04-05T21:41:36.906Z,35.27
2019-04-05T21:44:05.845Z,39.58
2019-04-05T21:46:34.581Z,33.87
2019-04-05T21:49:03.409Z,33.50
2019-04-05T21:51:32.489Z,36.55
2019-04-05T21:54:01.578Z,38.33
2019-04-05T21:56:30.630Z,37.78
2019-04-05T21:58:59.453Z,35.45
2019-04-05T22:01:28.386Z,33.90
2019-04-05T22:03:57.352Z,35.50
2019-04-05T22:06:26.147Z,36.98
2019-04-05T22:08:54.921Z,37.38
2019-04-05T22:11:23.660Z,36.48
2019-04-05T22:13:52.457Z,35.70
2019-04-05T22:16:21.210Z,37.03
2019-04-05T22:18:50.279Z,34.50
2019-04-05T22:21:19.264Z,34.95
2019-04-05T22:23:48.029Z,34.93
2019-04-05T22:26:17.074Z,36.05
2019-04-05T22:28:46.139Z,36.60
2019-04-05T22:31:15.680Z,34.48
2019-04-05T22:33:44.433Z,35.78
2019-04-05T22:36:13.186Z,33.33
2019-04-05T22:38:41.962Z,31.90
2019-04-05T22:41:10.974Z,33.67
2019-04-05T22:43:39.723Z,37.33
2019-04-05T22:46:08.525Z,36.70
2019-04-05T22:48:37.611Z,36.47
2019-04-05T22:51:06.366Z,35.95
2019-04-05T22:53:35.108Z,36.48
2019-04-05T22:56:03.952Z,36.70
2019-04-05T22:58:33.025Z,35.88
2019-04-05T23:01:01.788Z,36.75
2019-04-05T23:03:31.521Z,36.83
2019-04-05T23:06:00.382Z,35.23
2019-04-05T23:08:29.827Z,35.23
2019-04-05T23:10:58.806Z,32.15
2019-04-05T23:13:27.567Z,33.95
2019-04-05T23:15:56.394Z,35.77
2019-04-05T23:18:25.249Z,34.55
2019-04-05T23:20:54.009Z,36.48
2019-04-05T23:23:22.741Z,34.50
2019-04-05T23:25:51.557Z,34.83
2019-04-05T23:28:20.295Z,37.08
2019-04-05T23:30:49.053Z,35.70
2019-04-05T23:33:18.251Z,35.20
2019-04-05T23:35:47.082Z,36.08
2019-04-05T23:38:16.545Z,34.88
2019-04-05T23:40:45.447Z,36.83
2019-04-05T23:43:14.562Z,35.52
2019-04-05T23:45:43.338Z,34.75
2019-04-05T23:48:12.166Z,37.60
2019-04-05T23:50:41.193Z,35.70
2019-04-05T23:53:09.913Z,35.88
2019-04-05T23:55:39.236Z,35.95
2019-04-05T23:58:08.345Z,35.33
